Time;durP1;ratioP1;P1;durP2;ratioP2;P2;SDS_P1;SDS_P2;PMS_P1;PMS_P2;Temp;Humidity;BMP_temperature;BMP_pressure;BME280_temperature;BME280_humidity;BME280_pressure;Samples;Min_cycle;Max_cycle;Signal;HPM_P1;HPM_P2
2022/10/01 03:59:45;;;;;;;1.60;1.30;;;;;;;12.80;77.75;96902.16;6152617;23;20774;-68
2022/10/01 04:02:12;;;;;;;1.38;1.27;;;;;;;12.80;77.64;96898.69;6126580;23;20026;-69
2022/10/01 04:04:40;;;;;;;2.28;1.63;;;;;;;12.78;77.85;96904.00;6126526;23;20024;-68
2022/10/01 04:07:07;;;;;;;1.42;1.33;;;;;;;12.74;78.02;96902.41;6126543;23;20056;-68
2022/10/01 04:09:36;;;;;;;1.80;1.30;;;;;;;12.77;77.90;96912.78;6126529;23;20022;-68
2022/10/01 04:12:03;;;;;;;2.42;1.70;;;;;;;12.80;77.32;96919.69;6126383;23;20026;-68
2022/10/01 04:14:31;;;;;;;2.38;1.77;;;;;;;12.83;77.18;96932.69;6126389;23;20036;-69
2022/10/01 04:16:59;;;;;;;1.80;1.70;;;;;;;12.89;77.20;96932.44;6126462;23;20028;-68
2022/10/01 04:19:26;;;;;;;1.67;1.58;;;;;;;12.83;77.71;96930.94;6126421;23;20049;-68
2022/10/01 04:21:54;;;;;;;2.03;1.63;;;;;;;12.82;77.65;96939.69;6126431;23;20034;-67
2022/10/01 04:24:21;;;;;;;1.80;1.52;;;;;;;12.82;78.07;96944.94;6126351;23;20024;-68
2022/10/01 04:26:50;;;;;;;2.72;1.70;;;;;;;12.87;78.04;96943.00;6127740;23;20029;-68
2022/10/01 04:29:17;;;;;;;2.47;1.80;;;;;;;12.95;78.09;96939.22;6128621;23;20456;-68
2022/10/01 04:31:44;;;;;;;2.72;2.17;;;;;;;12.97;77.84;96938.22;6128463;23;20452;-69
2022/10/01 04:34:13;;;;;;;1.83;1.70;;;;;;;13.00;77.30;96929.34;6128594;23;20457;-68
2022/10/01 04:36:40;;;;;;;2.13;1.42;;;;;;;13.05;76.96;96930.03;6128509;23;20022;-67
2022/10/01 04:39:07;;;;;;;1.50;1.40;;;;;;;13.06;77.15;96931.72;6128455;23;20053;-69
2022/10/01 04:41:35;;;;;;;1.33;1.20;;;;;;;13.14;77.23;96924.41;6128360;23;20097;-68
2022/10/01 04:44:02;;;;;;;1.88;1.60;;;;;;;13.24;76.94;96934.50;6128389;23;20464;-67
2022/10/01 04:46:30;;;;;;;2.33;1.60;;;;;;;13.32;76.60;96924.53;6128367;23;20022;-68
2022/10/01 04:48:57;;;;;;;1.85;1.73;;;;;;;13.39;76.75;96925.97;6128622;23;20093;-68
2022/10/01 04:51:25;;;;;;;2.65;1.75;;;;;;;13.51;76.16;96929.88;6128624;23;20050;-68
2022/10/01 04:53:53;;;;;;;1.52;1.40;;;;;;;13.62;75.89;96939.03;6128313;23;20022;-68
2022/10/01 04:56:20;;;;;;;1.40;1.30;;;;;;;13.68;75.44;96941.41;6128627;23;20018;-69
2022/10/01 04:58:47;;;;;;;1.77;1.60;;;;;;;13.71;75.38;96943.91;6128611;23;20349;-68
2022/10/01 05:01:15;;;;;;;2.65;1.63;;;;;;;13.96;75.88;96947.19;6146422;23;20052;-68
2022/10/01 05:03:42;;;;;;;1.73;1.63;;;;;;;14.71;74.17;96943.75;6158050;23;20021;-68
2022/10/01 05:06:09;;;;;;;1.75;1.65;;;;;;;15.65;70.84;96932.09;6157626;23;20021;-68
2022/10/01 05:08:38;;;;;;;1.20;1.10;;;;;;;16.68;66.71;96930.09;6157417;23;20033;-68
2022/10/01 05:11:05;;;;;;;1.67;1.58;;;;;;;17.60;62.64;96928.41;6157446;23;20052;-68
2022/10/01 05:13:32;;;;;;;1.15;1.08;;;;;;;18.26;59.98;96926.16;6157798;23;20471;-68
2022/10/01 05:16:02;;;;;;;1.42;1.33;;;;;;;19.13;58.30;96921.53;6157923;23;20101;-68
2022/10/01 05:18:30;;;;;;;1.48;1.20;;;;;;;19.99;55.93;96921.91;6157514;23;20018;-67
2022/10/01 05:20:58;;;;;;;1.02;0.90;;;;;;;20.80;53.44;96921.47;6157746;23;20017;-65
2022/10/01 05:23:26;;;;;;;1.38;0.95;;;;;;;21.54;51.07;96935.56;6157311;23;20084;-66
2022/10/01 05:25:55;;;;;;;1.35;1.25;;;;;;;22.33;49.45;96941.06;6157370;23;20117;-66
2022/10/01 05:28:22;;;;;;;2.25;1.10;;;;;;;23.03;47.48;96930.13;6157235;23;20340;-67
2022/10/01 05:30:49;;;;;;;1.65;1.30;;;;;;;23.70;46.13;96934.44;6157338;23;20049;-66
2022/10/01 05:33:17;;;;;;;1.42;1.25;;;;;;;24.28;45.03;96938.41;6157704;23;20028;-65
2022/10/01 05:35:44;;;;;;;1.92;1.80;;;;;;;24.74;44.34;96937.94;6157505;23;20104;-66
2022/10/01 05:38:11;;;;;;;1.67;1.00;;;;;;;25.21;42.85;96942.66;6156919;23;20530;-66
2022/10/01 05:40:40;;;;;;;1.25;1.15;;;;;;;25.58;41.90;96942.88;6157315;23;20044;-67
2022/10/01 05:43:10;;;;;;;1.13;1.00;;;;;;;26.15;40.72;96946.59;6157130;23;20024;-66
2022/10/01 05:45:37;;;;;;;1.33;1.10;;;;;;;26.56;39.29;96948.97;6157084;23;20060;-66
2022/10/01 05:48:07;;;;;;;1.00;0.95;;;;;;;26.98;38.30;96943.09;6157076;23;20032;-66
2022/10/01 05:50:38;;;;;;;1.88;1.10;;;;;;;27.46;37.76;96941.97;6157517;23;20337;-66
2022/10/01 05:53:06;;;;;;;1.05;0.95;;;;;;;27.79;37.96;96936.00;6157373;23;20025;-66
2022/10/01 05:55:43;;;;;;;1.00;1.00;;;;;;;28.40;36.47;96938.72;6157135;23;20032;-66
2022/10/01 05:58:13;;;;;;;1.23;1.13;;;;;;;29.18;36.52;96940.44;6157222;23;20022;-67
2022/10/01 06:00:42;;;;;;;1.38;1.08;;;;;;;29.69;35.77;96937.59;6157612;23;20075;-67
2022/10/01 06:03:11;;;;;;;0.90;0.90;;;;;;;30.41;34.17;96937.75;6157169;23;20052;-66
2022/10/01 06:05:38;;;;;;;0.70;0.70;;;;;;;30.95;33.03;96927.22;6157206;23;20021;-66
2022/10/01 06:08:08;;;;;;;2.05;0.98;;;;;;;31.21;32.32;96928.72;6157013;23;20017;-66
2022/10/01 06:10:36;;;;;;;1.05;0.70;;;;;;;31.44;32.68;96927.88;6157403;23;20018;-66
2022/10/01 06:13:04;;;;;;;1.45;0.80;;;;;;;31.59;32.90;96922.50;6157170;23;20388;-67
2022/10/01 06:15:36;;;;;;;1.00;0.98;;;;;;;31.76;31.28;96925.91;6157378;23;20048;-67
2022/10/01 06:18:04;;;;;;;0.98;0.88;;;;;;;32.03;31.31;96921.75;6156870;23;20028;-66
2022/10/01 06:20:32;;;;;;;1.02;0.93;;;;;;;32.27;31.42;96921.66;6157182;23;20053;-66
2022/10/01 06:22:59;;;;;;;0.80;0.80;;;;;;;32.40;31.20;96921.84;6157198;23;20021;-66
2022/10/01 06:25:27;;;;;;;1.00;0.90;;;;;;;32.77;30.22;96935.41;6156664;23;20049;-66
2022/10/01 06:27:56;;;;;;;3.42;1.17;;;;;;;33.23;29.24;96943.41;6157111;23;20025;-66
2022/10/01 06:30:25;;;;;;;0.77;0.77;;;;;;;33.74;29.18;96939.69;6156911;23;20048;-67
2022/10/01 06:32:59;;;;;;;0.98;0.98;;;;;;;33.54;26.69;96942.22;6156719;23;20028;-66
2022/10/01 06:35:32;;;;;;;0.90;0.90;;;;;;;33.49;27.31;96941.94;6157112;23;20025;-66
2022/10/01 06:38:00;;;;;;;1.30;1.10;;;;;;;33.50;27.57;96941.75;6156767;23;20498;-66
2022/10/01 06:40:29;;;;;;;1.17;1.08;;;;;;;33.50;28.11;96930.91;6156665;23;20049;-66
2022/10/01 06:42:57;;;;;;;0.93;0.80;;;;;;;33.67;27.57;96927.13;6157136;23;20029;-66
2022/10/01 06:45:24;;;;;;;0.70;0.70;;;;;;;33.88;27.10;96929.78;6156838;23;20029;-66
2022/10/01 06:47:55;;;;;;;1.65;1.00;;;;;;;33.89;27.36;96955.03;6157125;23;20084;-66
2022/10/01 06:50:23;;;;;;;1.10;0.95;;;;;;;33.76;27.78;96951.19;6156265;23;20029;-66
2022/10/01 06:52:51;;;;;;;1.35;1.20;;;;;;;33.58;28.33;96942.66;6156920;23;20144;-65
2022/10/01 06:55:21;;;;;;;1.13;0.90;;;;;;;33.66;26.84;96942.56;6157041;23;20026;-66
2022/10/01 06:57:49;;;;;;;1.13;1.08;;;;;;;33.56;27.19;96953.72;6156654;23;20017;-66
2022/10/01 07:00:16;;;;;;;0.90;0.90;;;;;;;33.22;29.33;96947.97;6156206;23;20392;-65
2022/10/01 07:02:43;;;;;;;1.27;1.00;;;;;;;32.83;28.96;96941.09;6156845;23;20325;-66
2022/10/01 07:05:12;;;;;;;4.57;1.20;;;;;;;32.47;29.17;96948.97;6156441;23;20023;-66
2022/10/01 07:07:40;;;;;;;1.48;1.30;;;;;;;32.25;29.99;96948.91;6156472;23;20511;-65
2022/10/01 07:10:09;;;;;;;1.10;1.00;;;;;;;32.07;29.62;96930.34;6156715;23;20376;-65
2022/10/01 07:12:38;;;;;;;2.80;1.33;;;;;;;31.60;31.28;96926.91;6156448;23;20080;-66
2022/10/01 07:15:06;;;;;;;1.15;0.90;;;;;;;31.61;29.80;96923.19;6156894;23;20502;-65
2022/10/01 07:17:34;;;;;;;0.95;0.95;;;;;;;31.63;30.69;96924.66;6156407;23;20024;-65
2022/10/01 07:20:02;;;;;;;1.10;1.00;;;;;;;31.49;30.83;96920.94;6156280;23;20088;-66
2022/10/01 07:22:31;;;;;;;1.10;1.00;;;;;;;31.36;31.76;96918.81;6156221;23;20025;-64
2022/10/01 07:24:59;;;;;;;1.48;1.38;;;;;;;31.14;32.70;96918.63;6156005;23;20321;-66
2022/10/01 07:27:26;;;;;;;1.35;1.25;;;;;;;31.23;31.61;96910.47;6156505;23;20041;-65
2022/10/01 07:29:56;;;;;;;1.45;1.10;;;;;;;31.13;31.84;96902.63;6156459;23;20478;-65
2022/10/01 07:32:25;;;;;;;1.40;1.10;;;;;;;31.12;33.02;96915.28;6157964;23;20024;-64
2022/10/01 07:34:55;;;;;;;1.13;1.02;;;;;;;31.41;32.21;96929.09;6158163;23;20452;-66
2022/10/01 07:37:22;;;;;;;1.33;0.98;;;;;;;31.58;32.53;96924.38;6156179;23;20021;-66
2022/10/01 07:39:51;;;;;;;3.47;1.50;;;;;;;31.51;32.35;96918.84;6156530;23;20022;-66
2022/10/01 07:42:18;;;;;;;1.67;1.25;;;;;;;31.50;32.25;96922.59;6156221;23;20021;-66
2022/10/01 07:44:46;;;;;;;1.52;1.13;;;;;;;31.66;31.70;96920.75;6156417;23;20025;-66
2022/10/01 07:47:13;;;;;;;3.10;1.25;;;;;;;31.47;32.46;96922.97;6156478;23;20340;-66
2022/10/01 07:49:41;;;;;;;2.30;1.25;;;;;;;31.28;32.36;96935.91;6156536;23;20080;-66
2022/10/01 07:52:08;;;;;;;1.42;1.20;;;;;;;31.33;32.77;96929.13;6156437;23;20017;-66
2022/10/01 07:54:35;;;;;;;2.63;1.65;;;;;;;31.20;31.36;96930.56;6156560;23;20018;-67
2022/10/01 07:57:04;;;;;;;1.55;1.45;;;;;;;30.71;33.80;96924.47;6156029;23;20021;-67
2022/10/01 07:59:32;;;;;;;1.50;1.27;;;;;;;30.96;34.38;96927.03;6156379;23;20017;-65
2022/10/01 08:01:59;;;;;;;1.05;1.00;;;;;;;31.20;33.69;96921.63;6155616;23;20460;-66
2022/10/01 08:07:14;;;;;;;2.13;1.38;;;;;;;31.23;32.52;96910.47;6156232;23;20112;-66
2022/10/01 08:09:42;;;;;;;1.40;1.30;;;;;;;31.27;32.55;96909.91;6155688;23;20021;-66
2022/10/01 08:12:12;;;;;;;1.48;1.38;;;;;;;31.18;31.54;96918.28;6126658;23;20080;-66
2022/10/01 08:14:40;;;;;;;1.25;1.10;;;;;;;31.12;31.94;96914.44;6126938;23;20029;-66
2022/10/01 08:17:07;;;;;;;1.35;1.10;;;;;;;31.12;31.86;96919.84;6126400;23;20085;-67
2022/10/01 08:19:35;;;;;;;1.65;1.17;;;;;;;31.24;31.40;96921.09;6126424;23;20464;-67
2022/10/01 08:22:04;;;;;;;1.63;1.20;;;;;;;31.38;31.39;96915.94;6126509;23;20022;-66
2022/10/01 08:24:33;;;;;;;1.50;1.40;;;;;;;31.60;32.10;96916.09;6126302;23;20077;-66
2022/10/01 08:27:01;;;;;;;2.25;1.42;;;;;;;31.60;31.42;96914.22;6126938;23;20021;-66
2022/10/01 08:29:32;;;;;;;1.00;1.00;;;;;;;31.65;31.22;96909.13;6126348;23;20025;-65
2022/10/01 08:32:00;;;;;;;1.20;1.10;;;;;;;31.45;30.82;96900.66;6126523;23;20022;-66
2022/10/01 08:34:28;;;;;;;2.17;1.10;;;;;;;31.05;31.20;96898.09;6126396;23;20081;-66
2022/10/01 08:36:55;;;;;;;1.20;1.10;;;;;;;31.14;31.06;96899.72;6126450;23;20018;-65
2022/10/01 08:39:25;;;;;;;1.33;1.20;;;;;;;31.13;31.47;96897.22;6126358;23;20460;-66
2022/10/01 08:42:01;;;;;;;1.83;1.00;;;;;;;31.23;32.04;96911.31;6126708;23;20515;-66
2022/10/01 08:44:36;;;;;;;0.98;0.98;;;;;;;31.06;29.51;96905.19;6126064;23;20033;-66
2022/10/01 08:47:10;;;;;;;1.80;1.70;;;;;;;30.52;34.08;96912.25;6126768;23;20026;-66
2022/10/01 08:49:42;;;;;;;1.50;1.40;;;;;;;30.42;32.73;96912.47;6126377;23;20022;-66
2022/10/01 08:52:20;;;;;;;1.98;1.30;;;;;;;30.60;32.66;96906.81;6126735;23;20448;-66
2022/10/01 08:54:51;;;;;;;1.40;1.30;;;;;;;30.68;32.36;96905.94;6126305;23;20025;-66
2022/10/01 08:57:25;;;;;;;1.88;1.10;;;;;;;30.49;34.08;96896.44;6126719;23;20056;-66
2022/10/01 08:59:56;;;;;;;1.83;1.42;;;;;;;30.68;33.97;96902.38;6125997;23;20022;-65
2022/10/01 09:02:26;;;;;;;1.40;1.30;;;;;;;30.95;33.12;96895.66;6126652;23;20061;-66
2022/10/01 09:04:57;;;;;;;1.83;1.73;;;;;;;30.99;32.02;96899.69;6126670;23;20032;-66
2022/10/01 09:07:48;;;;;;;1.95;1.60;;;;;;;31.02;32.99;96902.03;6126421;23;20085;-66
2022/10/01 09:10:34;;;;;;;2.60;1.95;;;;;;;31.04;33.06;96904.53;6126219;23;20019;-65
2022/10/01 09:13:33;;;;;;;1.80;1.70;;;;;;;31.17;32.60;96889.56;6126944;23;20084;-65
2022/10/01 09:16:13;;;;;;;1.85;1.55;;;;;;;31.06;33.01;96898.97;6003799;23;20022;-66
2022/10/01 09:18:55;;;;;;;1.70;1.60;;;;;;;31.00;32.98;96889.72;6128469;23;20052;-66
2022/10/01 09:21:28;;;;;;;1.92;1.73;;;;;;;30.84;33.93;96901.47;6128126;23;20022;-66
2022/10/01 09:24:04;;;;;;;2.05;1.90;;;;;;;30.69;33.85;96894.09;6128405;23;20322;-66
2022/10/01 09:26:32;;;;;;;2.28;2.00;;;;;;;30.61;33.56;96886.88;6127926;23;20476;-66
2022/10/01 09:29:04;;;;;;;2.05;1.90;;;;;;;30.62;35.42;96883.19;6127987;23;20520;-66
2022/10/01 09:31:40;;;;;;;2.70;2.00;;;;;;;30.73;34.80;96873.00;6127866;23;20018;-66
2022/10/01 09:34:13;;;;;;;1.92;1.67;;;;;;;30.86;33.80;96861.63;6127910;23;20018;-66
2022/10/01 09:36:52;;;;;;;1.90;1.67;;;;;;;30.91;34.05;96861.91;6128090;23;20049;-66
2022/10/01 09:39:25;;;;;;;1.92;1.80;;;;;;;31.18;33.86;96856.97;6127821;23;20025;-66
2022/10/01 09:41:53;;;;;;;1.95;1.75;;;;;;;31.30;33.43;96862.78;6128412;23;20022;-66
2022/10/01 09:44:27;;;;;;;2.47;1.90;;;;;;;31.20;33.03;96870.31;6127631;23;20364;-67
2022/10/01 09:46:56;;;;;;;2.67;1.80;;;;;;;31.05;32.69;96871.09;6127644;23;20072;-66
2022/10/01 09:49:32;;;;;;;2.00;1.67;;;;;;;30.84;33.58;96861.81;6127705;23;20479;-66
2022/10/01 09:52:05;;;;;;;2.10;1.90;;;;;;;30.53;33.25;96849.19;6127746;23;20097;-66
2022/10/01 09:54:41;;;;;;;2.22;2.08;;;;;;;30.32;34.08;96839.00;6127795;23;20024;-66
2022/10/01 09:57:14;;;;;;;3.53;2.50;;;;;;;30.08;34.24;96838.94;6127658;23;20021;-66
2022/10/01 09:59:47;;;;;;;2.13;1.80;;;;;;;29.65;33.43;96852.72;6128121;23;20396;-66
2022/10/01 10:02:26;;;;;;;2.80;2.13;;;;;;;29.50;34.60;96857.94;6128056;23;20026;-65
2022/10/01 10:05:00;;;;;;;1.35;1.25;;;;;;;29.33;35.80;96854.44;6127517;23;20025;-66
2022/10/01 10:07:30;;;;;;;3.67;2.35;;;;;;;29.21;36.30;96854.78;6127622;23;20025;-66
2022/10/01 10:09:58;;;;;;;2.40;2.13;;;;;;;29.23;36.26;96857.31;6127924;23;20018;-66
2022/10/01 10:12:29;;;;;;;2.17;1.95;;;;;;;29.03;37.97;96854.97;6127962;23;20080;-66
2022/10/01 10:14:57;;;;;;;2.53;1.85;;;;;;;28.88;37.20;96855.59;6127738;23;20025;-66
2022/10/01 10:17:27;;;;;;;2.03;1.77;;;;;;;28.79;37.26;96861.97;6127465;23;20022;-66
2022/10/01 10:19:55;;;;;;;2.33;2.10;;;;;;;28.70;38.32;96858.44;6127355;23;20025;-66
2022/10/01 10:22:25;;;;;;;2.33;2.00;;;;;;;28.66;37.26;96869.69;6127482;23;20022;-66
2022/10/01 10:24:56;;;;;;;2.47;1.85;;;;;;;28.67;37.03;96866.84;6127672;23;20480;-66
2022/10/01 10:27:26;;;;;;;1.83;1.70;;;;;;;28.59;37.78;96874.91;6127562;23;20102;-66
2022/10/01 10:30:08;;;;;;;1.95;1.83;;;;;;;28.53;37.95;96881.75;6127397;23;20024;-66
2022/10/01 10:32:37;;;;;;;1.92;1.83;;;;;;;28.44;37.70;96872.00;6127737;23;20057;-66
2022/10/01 10:35:12;;;;;;;2.03;1.80;;;;;;;28.33;37.73;96871.31;6127325;23;20029;-65
2022/10/01 10:37:47;;;;;;;2.83;2.15;;;;;;;28.07;37.79;96872.19;6127638;23;20064;-66
2022/10/01 10:40:18;;;;;;;2.72;2.20;;;;;;;27.85;38.49;96870.91;6127374;23;20029;-66
2022/10/01 10:42:49;;;;;;;2.15;1.80;;;;;;;27.73;39.25;96868.50;6127290;23;20041;-66
2022/10/01 10:45:20;;;;;;;3.22;2.20;;;;;;;27.67;38.85;96861.06;6127574;23;20093;-66
2022/10/01 10:47:52;;;;;;;2.72;2.30;;;;;;;27.65;39.89;96852.31;6127153;23;20026;-67
2022/10/01 10:50:29;;;;;;;5.25;2.08;;;;;;;27.69;39.44;96855.53;6127519;23;20017;-66
2022/10/01 10:52:58;;;;;;;2.42;1.92;;;;;;;27.62;39.00;96853.44;6127105;23;20100;-67
2022/10/01 10:55:29;;;;;;;2.22;2.03;;;;;;;27.60;39.31;96860.00;6127422;23;20084;-66
2022/10/01 10:58:07;;;;;;;2.50;2.30;;;;;;;27.64;39.47;96858.66;6127169;23;20022;-66
2022/10/01 11:00:48;;;;;;;2.00;1.80;;;;;;;27.62;39.38;96868.72;6126852;23;20021;-67
2022/10/01 11:03:25;;;;;;;2.20;1.75;;;;;;;27.66;39.80;96867.41;6127329;23;20113;-66
2022/10/01 11:05:55;;;;;;;1.95;1.75;;;;;;;27.75;39.63;96860.25;6126947;23;20033;-67
2022/10/01 11:08:26;;;;;;;2.27;2.07;;;;;;;27.90;39.22;96862.34;6127320;23;20093;-66
2022/10/01 11:11:07;;;;;;;1.95;1.70;;;;;;;28.10;39.60;96854.88;6127445;23;20022;-66
2022/10/01 11:14:00;;;;;;;2.58;1.98;;;;;;;28.22;39.06;96856.28;6126975;23;20029;-66
2022/10/01 11:16:52;;;;;;;2.03;1.70;;;;;;;28.34;38.06;96872.13;6127023;23;20026;-66
2022/10/01 11:19:41;;;;;;;1.63;1.52;;;;;;;28.26;38.48;96871.06;6126919;23;20018;-66
2022/10/01 11:22:22;;;;;;;2.35;1.67;;;;;;;28.29;38.39;96875.31;6126981;23;20032;-66
2022/10/01 11:25:20;;;;;;;2.30;1.90;;;;;;;28.27;38.38;96880.00;6126838;23;20026;-66
2022/10/01 11:27:57;;;;;;;2.50;1.80;;;;;;;28.20;38.31;96879.78;6117866;23;20104;-66
2022/10/01 11:30:30;;;;;;;1.77;1.33;;;;;;;28.05;37.25;96878.72;6126983;23;20509;-65
2022/10/01 11:33:11;;;;;;;5.35;1.98;;;;;;;27.94;36.76;96869.09;6126857;23;20025;-66
2022/10/01 11:35:54;;;;;;;3.10;1.33;;;;;;;27.93;37.36;96870.09;6126514;23;20026;-66
2022/10/01 11:38:50;;;;;;;1.38;1.27;;;;;;;27.88;37.36;96867.91;6126870;23;20029;-66
2022/10/01 11:41:30;;;;;;;2.50;1.77;;;;;;;28.00;36.62;96871.13;6126737;23;20108;-66
2022/10/01 11:44:01;;;;;;;1.60;1.50;;;;;;;27.93;37.34;96864.72;6126703;23;20022;-66
2022/10/01 11:46:37;;;;;;;1.83;1.40;;;;;;;27.77;37.13;96874.38;6126824;23;20033;-66
2022/10/01 11:49:30;;;;;;;1.33;1.23;;;;;;;27.72;37.26;96890.97;6126930;23;20022;-66
2022/10/01 11:52:10;;;;;;;1.60;1.30;;;;;;;27.65;37.72;96881.00;6126561;23;20022;-66
2022/10/01 11:54:49;;;;;;;2.03;1.50;;;;;;;27.47;38.53;96881.88;6126659;23;20102;-66
2022/10/01 12:00:13;;;;;;;1.02;1.02;;;;;;;27.07;42.19;96871.53;6126517;23;20157;-66
2022/10/01 12:02:51;;;;;;;1.95;1.75;;;;;;;26.90;43.31;96878.56;6126494;23;20018;-66
2022/10/01 12:05:21;;;;;;;4.15;1.63;;;;;;;26.65;44.96;96875.66;6126440;23;20360;-66
2022/10/01 12:08:01;;;;;;;2.15;2.00;;;;;;;26.20;47.83;96870.09;6126487;23;20400;-66
2022/10/01 12:10:38;;;;;;;1.70;1.60;;;;;;;25.99;48.27;96847.09;6126742;23;20482;-66
2022/10/01 12:13:17;;;;;;;1.75;1.63;;;;;;;26.05;50.23;96836.75;6126558;23;20360;-65
2022/10/01 12:15:49;;;;;;;1.63;1.52;;;;;;;26.08;50.04;96850.72;6126582;23;20021;-66
2022/10/01 12:18:27;;;;;;;2.03;1.65;;;;;;;25.92;48.88;96847.81;6126703;23;20029;-65
2022/10/01 12:20:58;;;;;;;1.42;1.30;;;;;;;25.83;47.70;96833.47;6126639;23;20051;-66
2022/10/01 12:23:32;;;;;;;1.30;1.17;;;;;;;25.69;44.88;96830.28;6126919;23;20022;-66
2022/10/01 12:26:08;;;;;;;1.67;1.50;;;;;;;25.48;45.09;96822.44;6126717;23;20097;-65
2022/10/01 12:28:44;;;;;;;1.70;1.60;;;;;;;25.41;45.27;96799.91;6126751;23;20464;-66
2022/10/01 12:31:20;;;;;;;3.03;1.38;;;;;;;25.36;44.75;96792.31;6126437;23;20029;-68
2022/10/01 12:34:05;;;;;;;1.48;1.23;;;;;;;25.29;46.26;96751.94;6126509;23;20060;-65
2022/10/01 12:36:44;;;;;;;1.60;1.50;;;;;;;25.20;48.00;96732.22;6126393;23;20077;-68
2022/10/01 12:39:28;;;;;;;1.63;1.40;;;;;;;25.29;44.38;96733.19;6126561;23;20022;-68
2022/10/01 12:42:09;;;;;;;1.83;1.58;;;;;;;25.43;45.73;96753.25;6126982;23;20092;-68
2022/10/01 12:45:03;;;;;;;1.20;1.10;;;;;;;25.62;45.51;96762.25;6126250;23;20026;-68
2022/10/01 12:47:43;;;;;;;1.55;1.38;;;;;;;25.77;48.21;96757.25;6127752;23;20318;-68
2022/10/01 12:50:30;;;;;;;2.08;1.73;;;;;;;25.83;47.53;96764.66;6128477;23;20078;-68
2022/10/01 12:53:16;;;;;;;1.40;1.30;;;;;;;25.92;45.48;96760.25;6128729;23;20343;-68
2022/10/01 12:56:01;;;;;;;1.60;1.50;;;;;;;26.03;45.09;96761.88;6128381;23;20024;-68
2022/10/01 12:58:56;;;;;;;1.10;1.00;;;;;;;26.06;43.60;96772.28;6128340;23;20535;-67
2022/10/01 13:01:36;;;;;;;1.67;1.30;;;;;;;25.87;44.02;96759.84;6127922;23;20026;-67
2022/10/01 13:04:35;;;;;;;1.13;0.98;;;;;;;25.88;44.47;96740.09;6128500;23;20018;-68
2022/10/01 13:07:25;;;;;;;1.25;1.17;;;;;;;25.83;45.16;96731.69;6127721;23;20468;-68
2022/10/01 13:10:03;;;;;;;1.10;0.80;;;;;;;25.89;44.58;96717.69;6128411;23;20092;-68
2022/10/01 13:13:00;;;;;;;1.05;0.90;;;;;;;25.88;42.40;96705.28;6128171;23;20077;-68
2022/10/01 13:15:33;;;;;;;1.80;1.02;;;;;;;25.84;44.09;96699.41;6128483;23;20018;-68
2022/10/01 13:18:13;;;;;;;1.17;1.08;;;;;;;25.86;44.63;96694.72;6128643;23;20021;-68
2022/10/01 13:20:53;;;;;;;0.80;0.80;;;;;;;25.91;43.36;96685.41;6128074;23;20025;-68
2022/10/01 13:23:30;;;;;;;1.38;1.20;;;;;;;25.97;44.62;96690.97;6128037;23;20028;-67
2022/10/01 13:26:06;;;;;;;3.30;1.15;;;;;;;25.97;43.75;96666.88;6127676;23;20061;-68
2022/10/01 13:28:52;;;;;;;1.20;1.02;;;;;;;25.93;44.14;96670.84;6128088;23;20026;-65
2022/10/01 13:31:19;;;;;;;1.00;1.00;;;;;;;25.86;44.88;96669.78;6128431;23;20472;-64
2022/10/01 13:34:15;;;;;;;2.63;1.00;;;;;;;25.80;45.17;96663.19;6127938;23;20022;-65
2022/10/01 13:39:48;;;;;;;0.98;0.80;;;;;;;25.54;46.44;96629.09;6127615;23;20021;-68
2022/10/01 13:42:24;;;;;;;1.40;1.30;;;;;;;25.38;46.27;96602.13;6127991;23;20077;-68
2022/10/01 13:44:57;;;;;;;1.52;1.13;;;;;;;25.29;46.12;96590.50;6128107;23;20018;-65
2022/10/01 13:47:26;;;;;;;0.85;0.85;;;;;;;25.21;47.15;96570.69;6128332;23;20094;-68
2022/10/01 13:49:58;;;;;;;2.22;1.00;;;;;;;25.17;45.94;96568.44;6127811;23;20026;-68
2022/10/01 13:52:28;;;;;;;0.98;0.90;;;;;;;25.13;45.20;96565.22;6128129;23;20022;-68
2022/10/01 13:54:58;;;;;;;1.38;1.00;;;;;;;25.10;46.38;96553.00;6128066;23;20029;-68
2022/10/01 13:57:33;;;;;;;1.65;1.35;;;;;;;25.06;46.50;96546.25;6128039;23;20145;-67
2022/10/01 14:00:19;;;;;;;1.60;1.15;;;;;;;25.02;46.28;96536.88;6127037;23;20032;-68
2022/10/01 14:03:04;;;;;;;1.10;0.90;;;;;;;24.99;46.96;96559.38;6127893;23;20022;-68
2022/10/01 14:05:36;;;;;;;2.55;1.27;;;;;;;24.96;46.58;96570.38;6127891;23;20033;-68
2022/10/01 14:08:12;;;;;;;1.50;0.90;;;;;;;24.91;45.48;96575.34;6127459;23;20025;-68
2022/10/01 14:16:14;;;;;;;1.45;1.17;;;;;;;24.99;48.81;96571.94;6127621;23;20077;-68
2022/10/01 14:18:43;;;;;;;1.55;1.40;;;;;;;25.13;48.30;96580.44;6127652;23;20528;-68
2022/10/01 14:21:29;;;;;;;1.02;1.00;;;;;;;25.18;48.24;96576.34;6127372;23;20046;-68
2022/10/01 14:24:06;;;;;;;2.15;1.20;;;;;;;25.05;45.86;96570.50;6127375;23;20519;-68
2022/10/01 14:26:42;;;;;;;1.73;0.90;;;;;;;25.03;46.21;96570.63;6127263;23;20417;-68
2022/10/01 14:29:23;;;;;;;0.80;0.80;;;;;;;24.95;44.73;96568.69;6127501;23;20463;-68
2022/10/01 14:32:03;;;;;;;1.00;0.90;;;;;;;25.01;44.22;96574.47;6127434;23;20464;-68
2022/10/01 14:34:47;;;;;;;1.08;0.98;;;;;;;25.06;45.16;96569.50;6127736;23;20343;-68
2022/10/01 14:37:18;;;;;;;3.38;1.00;;;;;;;25.08;45.44;96570.19;6127415;23;20090;-68
2022/10/01 14:39:47;;;;;;;1.50;1.02;;;;;;;25.10;47.12;96570.88;6127374;23;20386;-65
2022/10/01 14:42:18;;;;;;;3.38;1.17;;;;;;;25.06;47.78;96564.13;6127332;23;20461;-66
2022/10/01 14:44:47;;;;;;;1.08;0.98;;;;;;;25.01;47.58;96558.41;6127236;23;20022;-66
2022/10/01 14:47:20;;;;;;;1.52;1.33;;;;;;;24.93;46.68;96551.13;6127114;23;20025;-65
2022/10/01 14:49:48;;;;;;;2.88;1.40;;;;;;;24.91;47.96;96521.00;6127666;23;20025;-65
2022/10/01 14:52:22;;;;;;;0.98;0.95;;;;;;;24.76;48.39;96524.16;6127149;23;20022;-65
2022/10/01 14:54:53;;;;;;;1.02;0.98;;;;;;;24.73;49.54;96540.47;6127224;23;20025;-64
2022/10/01 14:57:29;;;;;;;1.75;1.60;;;;;;;24.70;50.62;96544.31;6127484;23;20026;-68
2022/10/01 14:59:59;;;;;;;2.58;1.52;;;;;;;24.69;52.00;96531.06;6127020;23;20348;-68
2022/10/01 15:02:28;;;;;;;2.25;1.40;;;;;;;24.64;51.89;96538.69;6127035;23;20349;-68
2022/10/01 15:04:57;;;;;;;1.00;0.90;;;;;;;24.58;50.61;96540.13;6127070;23;20054;-65
2022/10/01 15:07:36;;;;;;;1.27;1.17;;;;;;;24.53;51.22;96534.38;6126500;23;20029;-68
2022/10/01 15:10:07;;;;;;;1.92;1.40;;;;;;;24.44;52.20;96531.59;6126632;23;20457;-68
2022/10/01 15:12:41;;;;;;;1.50;1.40;;;;;;;24.41;53.90;96531.88;6127250;23;20475;-69
2022/10/01 15:15:19;;;;;;;1.48;1.23;;;;;;;24.27;54.65;96532.34;6127336;23;20025;-68
2022/10/01 15:17:49;;;;;;;1.63;1.20;;;;;;;24.16;52.86;96520.84;6126983;23;20022;-67
2022/10/01 15:20:18;;;;;;;1.50;1.27;;;;;;;24.10;51.72;96513.38;6128221;23;20026;-67
2022/10/01 15:22:49;;;;;;;2.25;1.50;;;;;;;24.04;51.93;96509.47;6129138;23;20018;-65
2022/10/01 15:25:19;;;;;;;;;;;;;;;23.96;53.69;96498.66;6127890;23;20022;-69
2022/10/01 15:27:52;;;;;;;1.85;1.27;;;;;;;23.78;54.52;96482.53;6126817;23;19924;-68
2022/10/01 15:30:22;;;;;;;2.00;1.60;;;;;;;23.52;53.58;96473.28;6126798;23;20491;-67
2022/10/01 15:32:52;;;;;;;1.30;1.20;;;;;;;23.43;54.47;96469.66;6126808;23;20227;-69
2022/10/01 15:35:21;;;;;;;2.22;1.63;;;;;;;23.36;55.96;96481.84;6127062;23;20028;-69
2022/10/01 15:37:51;;;;;;;1.85;1.65;;;;;;;23.26;56.29;96484.47;6127183;23;20046;-68
2022/10/01 15:40:27;;;;;;;2.10;1.90;;;;;;;23.13;56.76;96491.91;6127452;23;20068;-68
2022/10/01 15:43:25;;;;;;;4.28;1.60;;;;;;;22.96;56.28;96496.94;6126877;23;20022;-68
2022/10/01 15:46:27;;;;;;;1.40;1.30;;;;;;;22.76;56.31;96496.06;6126229;23;20022;-68
2022/10/01 15:49:17;;;;;;;1.30;1.20;;;;;;;22.32;57.93;96490.00;6126764;23;20018;-68
2022/10/01 15:54:44;;;;;;;1.77;1.60;;;;;;;21.70;58.52;96488.06;6126912;23;20033;-69
2022/10/01 15:57:19;;;;;;;1.20;1.10;;;;;;;21.51;59.47;96483.44;6127115;23;20483;-69
2022/10/01 15:59:48;;;;;;;2.40;1.42;;;;;;;21.42;59.33;96487.72;6126759;23;20060;-68
2022/10/01 16:02:21;;;;;;;1.27;1.17;;;;;;;21.37;59.21;96483.78;6126508;23;20022;-69
2022/10/01 16:04:54;;;;;;;1.83;1.67;;;;;;;21.18;59.25;96467.50;6127020;23;20099;-69
2022/10/01 16:07:29;;;;;;;2.30;1.50;;;;;;;20.86;60.91;96457.66;6126633;23;20026;-69
2022/10/01 16:09:59;;;;;;;1.70;1.35;;;;;;;20.71;61.69;96465.09;6127181;23;20053;-69
2022/10/01 16:12:29;;;;;;;1.38;1.00;;;;;;;20.41;61.96;96462.09;6126560;23;20017;-69
2022/10/01 16:15:02;;;;;;;1.55;1.27;;;;;;;20.25;61.14;96458.94;6126999;23;20448;-68
2022/10/01 16:17:33;;;;;;;1.35;1.25;;;;;;;20.15;60.67;96453.53;6127014;23;20029;-69